sensor_id;sensor_type;location;lat;lon;timestamp;P1;durP1;ratioP1;P2;durP2;ratioP2
76228;SDS011;65021;53.174;18.160;2023-04-03T00:01:43;4.90;;;0.90;;
76228;SDS011;65021;53.174;18.160;2023-04-03T00:04:09;6.10;;;1.30;;
76228;SDS011;65021;53.174;18.160;2023-04-03T00:06:35;8.80;;;1.10;;
76228;SDS011;65021;53.174;18.160;2023-04-03T00:09:01;6.30;;;1.40;;
76228;SDS011;65021;53.174;18.160;2023-04-03T00:11:27;2.60;;;0.90;;
76228;SDS011;65021;53.174;18.160;2023-04-03T00:13:53;6.40;;;1.20;;
76228;SDS011;65021;53.174;18.160;2023-04-03T00:16:19;1.80;;;0.70;;
76228;SDS011;65021;53.174;18.160;2023-04-03T00:18:46;2.70;;;0.80;;
76228;SDS011;65021;53.174;18.160;2023-04-03T00:21:12;4.20;;;0.80;;
76228;SDS011;65021;53.174;18.160;2023-04-03T00:23:38;3.30;;;0.80;;
76228;SDS011;65021;53.174;18.160;2023-04-03T00:26:05;7.40;;;1.00;;
76228;SDS011;65021;53.174;18.160;2023-04-03T00:28:30;5.00;;;0.80;;
76228;SDS011;65021;53.174;18.160;2023-04-03T00:30:57;4.90;;;1.00;;
76228;SDS011;65021;53.174;18.160;2023-04-03T00:33:23;6.90;;;1.40;;
76228;SDS011;65021;53.174;18.160;2023-04-03T00:35:50;3.90;;;1.00;;
76228;SDS011;65021;53.174;18.160;2023-04-03T00:38:16;4.40;;;1.20;;
76228;SDS011;65021;53.174;18.160;2023-04-03T00:40:43;4.40;;;0.90;;
76228;SDS011;65021;53.174;18.160;2023-04-03T00:43:11;4.20;;;0.80;;
76228;SDS011;65021;53.174;18.160;2023-04-03T00:45:47;2.10;;;0.50;;
76228;SDS011;65021;53.174;18.160;2023-04-03T00:48:22;1.40;;;0.50;;
76228;SDS011;65021;53.174;18.160;2023-04-03T00:50:54;5.60;;;1.00;;
76228;SDS011;65021;53.174;18.160;2023-04-03T00:53:29;2.10;;;0.80;;
76228;SDS011;65021;53.174;18.160;2023-04-03T00:55:59;3.70;;;0.60;;
76228;SDS011;65021;53.174;18.160;2023-04-03T00:58:28;6.10;;;1.30;;
76228;SDS011;65021;53.174;18.160;2023-04-03T01:01:03;9.50;;;1.30;;
76228;SDS011;65021;53.174;18.160;2023-04-03T01:03:33;3.20;;;0.90;;
76228;SDS011;65021;53.174;18.160;2023-04-03T01:06:00;4.10;;;0.70;;
76228;SDS011;65021;53.174;18.160;2023-04-03T01:08:26;5.70;;;1.10;;
76228;SDS011;65021;53.174;18.160;2023-04-03T01:10:52;3.20;;;0.90;;
76228;SDS011;65021;53.174;18.160;2023-04-03T01:13:28;3.10;;;0.90;;
76228;SDS011;65021;53.174;18.160;2023-04-03T01:15:56;2.30;;;0.50;;
76228;SDS011;65021;53.174;18.160;2023-04-03T01:18:22;7.20;;;1.00;;
76228;SDS011;65021;53.174;18.160;2023-04-03T01:23:50;1.30;;;0.50;;
76228;SDS011;65021;53.174;18.160;2023-04-03T01:26:24;1.60;;;0.50;;
76228;SDS011;65021;53.174;18.160;2023-04-03T01:28:52;2.70;;;0.90;;
76228;SDS011;65021;53.174;18.160;2023-04-03T01:31:24;1.80;;;0.80;;
76228;SDS011;65021;53.174;18.160;2023-04-03T01:33:53;4.20;;;0.70;;
76228;SDS011;65021;53.174;18.160;2023-04-03T01:36:21;4.60;;;1.10;;
76228;SDS011;65021;53.174;18.160;2023-04-03T01:41:16;3.30;;;0.40;;
76228;SDS011;65021;53.174;18.160;2023-04-03T01:43:42;5.10;;;0.70;;
76228;SDS011;65021;53.174;18.160;2023-04-03T01:46:09;2.20;;;0.40;;
76228;SDS011;65021;53.174;18.160;2023-04-03T01:48:35;1.40;;;0.60;;
76228;SDS011;65021;53.174;18.160;2023-04-03T01:51:01;3.70;;;1.40;;
76228;SDS011;65021;53.174;18.160;2023-04-03T01:53:27;3.50;;;0.80;;
76228;SDS011;65021;53.174;18.160;2023-04-03T01:55:53;3.10;;;0.40;;
76228;SDS011;65021;53.174;18.160;2023-04-03T01:58:19;4.00;;;1.00;;
76228;SDS011;65021;53.174;18.160;2023-04-03T02:00:45;4.40;;;0.50;;
76228;SDS011;65021;53.174;18.160;2023-04-03T02:03:11;5.00;;;0.90;;
76228;SDS011;65021;53.174;18.160;2023-04-03T02:05:37;2.30;;;0.50;;
76228;SDS011;65021;53.174;18.160;2023-04-03T02:08:03;1.90;;;0.50;;
76228;SDS011;65021;53.174;18.160;2023-04-03T02:10:30;6.00;;;1.00;;
76228;SDS011;65021;53.174;18.160;2023-04-03T02:12:55;1.50;;;0.90;;
76228;SDS011;65021;53.174;18.160;2023-04-03T02:15:21;6.50;;;1.30;;
76228;SDS011;65021;53.174;18.160;2023-04-03T02:17:47;3.90;;;1.30;;
76228;SDS011;65021;53.174;18.160;2023-04-03T02:20:13;4.00;;;0.70;;
76228;SDS011;65021;53.174;18.160;2023-04-03T02:22:39;9.50;;;1.50;;
76228;SDS011;65021;53.174;18.160;2023-04-03T02:25:05;1.60;;;0.60;;
76228;SDS011;65021;53.174;18.160;2023-04-03T02:27:32;2.50;;;0.70;;
76228;SDS011;65021;53.174;18.160;2023-04-03T02:29:58;2.90;;;0.50;;
76228;SDS011;65021;53.174;18.160;2023-04-03T02:32:23;3.70;;;1.00;;
76228;SDS011;65021;53.174;18.160;2023-04-03T02:34:50;3.60;;;1.00;;
76228;SDS011;65021;53.174;18.160;2023-04-03T02:37:15;1.40;;;0.50;;
76228;SDS011;65021;53.174;18.160;2023-04-03T02:39:42;3.30;;;0.60;;
76228;SDS011;65021;53.174;18.160;2023-04-03T02:42:07;3.90;;;1.20;;
76228;SDS011;65021;53.174;18.160;2023-04-03T02:44:34;2.50;;;0.30;;
76228;SDS011;65021;53.174;18.160;2023-04-03T02:47:01;4.30;;;1.00;;
76228;SDS011;65021;53.174;18.160;2023-04-03T02:49:28;3.10;;;0.90;;
76228;SDS011;65021;53.174;18.160;2023-04-03T02:51:54;3.40;;;0.80;;
76228;SDS011;65021;53.174;18.160;2023-04-03T02:54:20;2.70;;;0.90;;
76228;SDS011;65021;53.174;18.160;2023-04-03T02:56:46;4.60;;;0.80;;
76228;SDS011;65021;53.174;18.160;2023-04-03T02:59:12;5.00;;;0.90;;
76228;SDS011;65021;53.174;18.160;2023-04-03T03:01:38;2.40;;;0.70;;
76228;SDS011;65021;53.174;18.160;2023-04-03T03:04:06;4.50;;;1.20;;
76228;SDS011;65021;53.174;18.160;2023-04-03T03:06:32;5.40;;;1.00;;
76228;SDS011;65021;53.174;18.160;2023-04-03T03:08:58;2.90;;;0.80;;
76228;SDS011;65021;53.174;18.160;2023-04-03T03:11:27;4.50;;;0.90;;
76228;SDS011;65021;53.174;18.160;2023-04-03T03:13:54;1.20;;;0.30;;
76228;SDS011;65021;53.174;18.160;2023-04-03T03:16:23;5.90;;;1.10;;
76228;SDS011;65021;53.174;18.160;2023-04-03T03:18:49;5.20;;;0.90;;
76228;SDS011;65021;53.174;18.160;2023-04-03T03:21:15;2.60;;;0.70;;
76228;SDS011;65021;53.174;18.160;2023-04-03T03:23:43;7.50;;;1.10;;
76228;SDS011;65021;53.174;18.160;2023-04-03T03:26:12;4.20;;;0.80;;
76228;SDS011;65021;53.174;18.160;2023-04-03T03:28:41;3.70;;;1.20;;
76228;SDS011;65021;53.174;18.160;2023-04-03T03:31:07;5.30;;;1.10;;
76228;SDS011;65021;53.174;18.160;2023-04-03T03:33:34;1.90;;;0.50;;
76228;SDS011;65021;53.174;18.160;2023-04-03T03:36:01;2.90;;;0.80;;
76228;SDS011;65021;53.174;18.160;2023-04-03T03:38:27;2.50;;;0.90;;
76228;SDS011;65021;53.174;18.160;2023-04-03T03:40:53;1.80;;;0.40;;
76228;SDS011;65021;53.174;18.160;2023-04-03T03:43:19;4.80;;;1.20;;
76228;SDS011;65021;53.174;18.160;2023-04-03T03:45:46;1.60;;;0.50;;
76228;SDS011;65021;53.174;18.160;2023-04-03T03:48:16;1.10;;;0.40;;
76228;SDS011;65021;53.174;18.160;2023-04-03T03:50:42;4.50;;;1.30;;
76228;SDS011;65021;53.174;18.160;2023-04-03T03:53:07;1.90;;;0.60;;
76228;SDS011;65021;53.174;18.160;2023-04-03T03:55:33;5.90;;;0.80;;
76228;SDS011;65021;53.174;18.160;2023-04-03T03:58:02;4.70;;;1.10;;
76228;SDS011;65021;53.174;18.160;2023-04-03T04:00:29;5.50;;;1.10;;
76228;SDS011;65021;53.174;18.160;2023-04-03T04:02:55;1.70;;;0.50;;
76228;SDS011;65021;53.174;18.160;2023-04-03T04:05:22;0.90;;;0.30;;
76228;SDS011;65021;53.174;18.160;2023-04-03T04:07:48;6.50;;;1.40;;
76228;SDS011;65021;53.174;18.160;2023-04-03T04:10:14;5.50;;;1.80;;
76228;SDS011;65021;53.174;18.160;2023-04-03T04:12:40;2.00;;;0.60;;
76228;SDS011;65021;53.174;18.160;2023-04-03T04:15:06;4.60;;;0.80;;
76228;SDS011;65021;53.174;18.160;2023-04-03T04:17:33;2.10;;;0.90;;
76228;SDS011;65021;53.174;18.160;2023-04-03T04:20:01;3.40;;;0.90;;
76228;SDS011;65021;53.174;18.160;2023-04-03T04:22:30;5.20;;;0.90;;
76228;SDS011;65021;53.174;18.160;2023-04-03T04:24:56;2.30;;;0.70;;
76228;SDS011;65021;53.174;18.160;2023-04-03T04:27:22;2.90;;;0.90;;
76228;SDS011;65021;53.174;18.160;2023-04-03T04:29:57;2.40;;;0.60;;
76228;SDS011;65021;53.174;18.160;2023-04-03T04:32:23;8.10;;;1.60;;
76228;SDS011;65021;53.174;18.160;2023-04-03T04:34:49;4.20;;;0.90;;
76228;SDS011;65021;53.174;18.160;2023-04-03T04:37:15;5.50;;;1.00;;
76228;SDS011;65021;53.174;18.160;2023-04-03T04:39:41;1.30;;;0.50;;
76228;SDS011;65021;53.174;18.160;2023-04-03T04:42:07;4.20;;;1.00;;
76228;SDS011;65021;53.174;18.160;2023-04-03T04:44:38;2.80;;;1.10;;
76228;SDS011;65021;53.174;18.160;2023-04-03T04:47:05;5.40;;;1.40;;
76228;SDS011;65021;53.174;18.160;2023-04-03T04:49:30;1.40;;;0.50;;
76228;SDS011;65021;53.174;18.160;2023-04-03T04:51:56;6.20;;;1.00;;
76228;SDS011;65021;53.174;18.160;2023-04-03T04:54:22;5.40;;;1.10;;
76228;SDS011;65021;53.174;18.160;2023-04-03T04:56:48;9.30;;;1.60;;
76228;SDS011;65021;53.174;18.160;2023-04-03T04:59:14;7.40;;;1.50;;
76228;SDS011;65021;53.174;18.160;2023-04-03T05:01:40;4.60;;;1.70;;
76228;SDS011;65021;53.174;18.160;2023-04-03T05:04:06;4.50;;;1.00;;
76228;SDS011;65021;53.174;18.160;2023-04-03T05:06:32;6.90;;;1.50;;
76228;SDS011;65021;53.174;18.160;2023-04-03T05:08:58;2.40;;;0.90;;
76228;SDS011;65021;53.174;18.160;2023-04-03T05:11:24;5.70;;;1.10;;
76228;SDS011;65021;53.174;18.160;2023-04-03T05:13:51;5.00;;;1.00;;
76228;SDS011;65021;53.174;18.160;2023-04-03T05:16:17;4.90;;;1.30;;
76228;SDS011;65021;53.174;18.160;2023-04-03T05:18:42;4.10;;;1.30;;
76228;SDS011;65021;53.174;18.160;2023-04-03T05:21:08;5.30;;;1.20;;
76228;SDS011;65021;53.174;18.160;2023-04-03T05:23:34;2.50;;;1.00;;
76228;SDS011;65021;53.174;18.160;2023-04-03T05:26:00;5.10;;;1.30;;
76228;SDS011;65021;53.174;18.160;2023-04-03T05:28:26;5.40;;;1.50;;
76228;SDS011;65021;53.174;18.160;2023-04-03T05:30:53;4.20;;;1.00;;
76228;SDS011;65021;53.174;18.160;2023-04-03T05:33:20;6.90;;;1.10;;
76228;SDS011;65021;53.174;18.160;2023-04-03T05:35:47;8.70;;;1.90;;
76228;SDS011;65021;53.174;18.160;2023-04-03T05:38:12;5.20;;;1.30;;
76228;SDS011;65021;53.174;18.160;2023-04-03T05:40:39;4.90;;;1.30;;
76228;SDS011;65021;53.174;18.160;2023-04-03T05:43:05;6.00;;;1.80;;
76228;SDS011;65021;53.174;18.160;2023-04-03T05:45:31;5.40;;;1.40;;
76228;SDS011;65021;53.174;18.160;2023-04-03T05:47:57;7.90;;;2.40;;
76228;SDS011;65021;53.174;18.160;2023-04-03T05:50:23;6.80;;;1.70;;
76228;SDS011;65021;53.174;18.160;2023-04-03T05:52:49;4.30;;;1.50;;
76228;SDS011;65021;53.174;18.160;2023-04-03T05:55:18;6.80;;;1.80;;
76228;SDS011;65021;53.174;18.160;2023-04-03T05:57:44;5.50;;;1.50;;
76228;SDS011;65021;53.174;18.160;2023-04-03T06:00:12;5.40;;;1.40;;
76228;SDS011;65021;53.174;18.160;2023-04-03T06:02:41;6.50;;;1.40;;
76228;SDS011;65021;53.174;18.160;2023-04-03T06:05:08;5.30;;;1.60;;
76228;SDS011;65021;53.174;18.160;2023-04-03T06:10:03;4.70;;;1.30;;
76228;SDS011;65021;53.174;18.160;2023-04-03T06:12:29;3.60;;;1.00;;
76228;SDS011;65021;53.174;18.160;2023-04-03T06:14:55;5.80;;;1.40;;
76228;SDS011;65021;53.174;18.160;2023-04-03T06:17:21;7.00;;;1.60;;
76228;SDS011;65021;53.174;18.160;2023-04-03T06:19:47;5.20;;;1.20;;
76228;SDS011;65021;53.174;18.160;2023-04-03T06:22:13;5.00;;;1.20;;
76228;SDS011;65021;53.174;18.160;2023-04-03T06:24:40;7.40;;;1.70;;
76228;SDS011;65021;53.174;18.160;2023-04-03T06:27:06;3.90;;;1.10;;
76228;SDS011;65021;53.174;18.160;2023-04-03T06:29:31;7.50;;;1.50;;
76228;SDS011;65021;53.174;18.160;2023-04-03T06:31:57;6.00;;;1.50;;
76228;SDS011;65021;53.174;18.160;2023-04-03T06:34:23;4.60;;;1.30;;
76228;SDS011;65021;53.174;18.160;2023-04-03T06:36:50;4.30;;;1.40;;
76228;SDS011;65021;53.174;18.160;2023-04-03T06:39:17;4.70;;;1.10;;
76228;SDS011;65021;53.174;18.160;2023-04-03T06:41:48;2.80;;;1.00;;
76228;SDS011;65021;53.174;18.160;2023-04-03T06:44:15;3.60;;;1.30;;
76228;SDS011;65021;53.174;18.160;2023-04-03T06:46:42;6.20;;;1.80;;
76228;SDS011;65021;53.174;18.160;2023-04-03T06:49:09;3.70;;;1.20;;
76228;SDS011;65021;53.174;18.160;2023-04-03T06:51:35;4.50;;;1.60;;
76228;SDS011;65021;53.174;18.160;2023-04-03T06:54:02;2.10;;;0.80;;
76228;SDS011;65021;53.174;18.160;2023-04-03T06:56:29;3.80;;;1.40;;
76228;SDS011;65021;53.174;18.160;2023-04-03T06:58:56;7.50;;;1.50;;
76228;SDS011;65021;53.174;18.160;2023-04-03T07:01:23;4.00;;;1.40;;
76228;SDS011;65021;53.174;18.160;2023-04-03T07:03:51;4.00;;;0.90;;
76228;SDS011;65021;53.174;18.160;2023-04-03T07:06:18;4.90;;;2.00;;
76228;SDS011;65021;53.174;18.160;2023-04-03T07:08:45;3.90;;;1.40;;
76228;SDS011;65021;53.174;18.160;2023-04-03T07:11:13;3.30;;;1.00;;
76228;SDS011;65021;53.174;18.160;2023-04-03T07:13:39;4.70;;;0.90;;
76228;SDS011;65021;53.174;18.160;2023-04-03T07:16:06;4.40;;;1.00;;
76228;SDS011;65021;53.174;18.160;2023-04-03T07:18:32;6.80;;;1.00;;
76228;SDS011;65021;53.174;18.160;2023-04-03T07:20:59;4.00;;;1.10;;
76228;SDS011;65021;53.174;18.160;2023-04-03T07:23:25;4.00;;;1.00;;
76228;SDS011;65021;53.174;18.160;2023-04-03T07:25:51;4.40;;;1.10;;
76228;SDS011;65021;53.174;18.160;2023-04-03T07:28:18;3.30;;;1.00;;
76228;SDS011;65021;53.174;18.160;2023-04-03T07:30:47;3.00;;;0.90;;
76228;SDS011;65021;53.174;18.160;2023-04-03T07:33:16;4.20;;;1.10;;
76228;SDS011;65021;53.174;18.160;2023-04-03T07:35:43;3.30;;;1.00;;
76228;SDS011;65021;53.174;18.160;2023-04-03T07:38:10;3.60;;;1.00;;
76228;SDS011;65021;53.174;18.160;2023-04-03T07:40:36;2.80;;;1.00;;
76228;SDS011;65021;53.174;18.160;2023-04-03T07:43:03;4.20;;;1.60;;
76228;SDS011;65021;53.174;18.160;2023-04-03T07:45:30;4.70;;;1.20;;
76228;SDS011;65021;53.174;18.160;2023-04-03T07:47:57;4.00;;;1.00;;
76228;SDS011;65021;53.174;18.160;2023-04-03T07:50:23;3.60;;;1.00;;
76228;SDS011;65021;53.174;18.160;2023-04-03T07:52:49;1.60;;;0.60;;
76228;SDS011;65021;53.174;18.160;2023-04-03T07:55:16;4.80;;;1.00;;
76228;SDS011;65021;53.174;18.160;2023-04-03T07:57:42;3.90;;;1.10;;
76228;SDS011;65021;53.174;18.160;2023-04-03T08:00:08;3.10;;;0.90;;
76228;SDS011;65021;53.174;18.160;2023-04-03T08:02:35;2.30;;;0.80;;
76228;SDS011;65021;53.174;18.160;2023-04-03T08:05:01;3.90;;;0.90;;
76228;SDS011;65021;53.174;18.160;2023-04-03T08:07:28;4.00;;;1.30;;
76228;SDS011;65021;53.174;18.160;2023-04-03T08:09:54;3.00;;;1.10;;
76228;SDS011;65021;53.174;18.160;2023-04-03T08:12:19;3.30;;;1.00;;
76228;SDS011;65021;53.174;18.160;2023-04-03T08:14:45;2.80;;;0.90;;
76228;SDS011;65021;53.174;18.160;2023-04-03T08:17:11;3.20;;;1.00;;
76228;SDS011;65021;53.174;18.160;2023-04-03T08:19:38;3.70;;;1.30;;
76228;SDS011;65021;53.174;18.160;2023-04-03T08:22:05;6.80;;;1.00;;
76228;SDS011;65021;53.174;18.160;2023-04-03T08:24:32;3.80;;;1.00;;
76228;SDS011;65021;53.174;18.160;2023-04-03T08:26:58;4.90;;;0.90;;
76228;SDS011;65021;53.174;18.160;2023-04-03T08:29:24;4.10;;;1.00;;
76228;SDS011;65021;53.174;18.160;2023-04-03T08:31:50;2.60;;;1.10;;
76228;SDS011;65021;53.174;18.160;2023-04-03T08:34:17;2.20;;;0.80;;
76228;SDS011;65021;53.174;18.160;2023-04-03T08:36:44;4.60;;;1.40;;
76228;SDS011;65021;53.174;18.160;2023-04-03T08:39:11;4.80;;;1.10;;
76228;SDS011;65021;53.174;18.160;2023-04-03T08:41:38;3.90;;;1.20;;
76228;SDS011;65021;53.174;18.160;2023-04-03T08:49:57;6.10;;;1.20;;
76228;SDS011;65021;53.174;18.160;2023-04-03T08:52:35;2.30;;;0.70;;
76228;SDS011;65021;53.174;18.160;2023-04-03T08:55:07;3.20;;;1.00;;
76228;SDS011;65021;53.174;18.160;2023-04-03T08:57:39;3.30;;;1.00;;
76228;SDS011;65021;53.174;18.160;2023-04-03T09:02:44;3.00;;;0.90;;
76228;SDS011;65021;53.174;18.160;2023-04-03T09:08:45;3.40;;;0.90;;
76228;SDS011;65021;53.174;18.160;2023-04-03T09:17:24;2.20;;;1.00;;
76228;SDS011;65021;53.174;18.160;2023-04-03T09:20:17;1.90;;;0.60;;
76228;SDS011;65021;53.174;18.160;2023-04-03T09:22:45;4.10;;;1.00;;
76228;SDS011;65021;53.174;18.160;2023-04-03T09:25:31;2.40;;;0.80;;
76228;SDS011;65021;53.174;18.160;2023-04-03T09:28:01;2.90;;;0.70;;
76228;SDS011;65021;53.174;18.160;2023-04-03T09:30:28;2.90;;;1.00;;
76228;SDS011;65021;53.174;18.160;2023-04-03T09:32:55;2.50;;;0.70;;
76228;SDS011;65021;53.174;18.160;2023-04-03T09:35:27;3.60;;;1.30;;
76228;SDS011;65021;53.174;18.160;2023-04-03T09:38:00;3.30;;;0.80;;
76228;SDS011;65021;53.174;18.160;2023-04-03T09:42:57;3.10;;;0.80;;
76228;SDS011;65021;53.174;18.160;2023-04-03T09:45:31;3.60;;;0.90;;
76228;SDS011;65021;53.174;18.160;2023-04-03T09:48:07;3.20;;;0.90;;
76228;SDS011;65021;53.174;18.160;2023-04-03T09:53:34;4.10;;;0.80;;
76228;SDS011;65021;53.174;18.160;2023-04-03T09:56:05;4.80;;;1.20;;
76228;SDS011;65021;53.174;18.160;2023-04-03T09:58:49;4.10;;;1.00;;
76228;SDS011;65021;53.174;18.160;2023-04-03T10:01:30;2.10;;;0.80;;
76228;SDS011;65021;53.174;18.160;2023-04-03T10:04:05;5.50;;;1.40;;
76228;SDS011;65021;53.174;18.160;2023-04-03T10:06:35;4.50;;;0.80;;
76228;SDS011;65021;53.174;18.160;2023-04-03T10:09:28;4.20;;;0.80;;
76228;SDS011;65021;53.174;18.160;2023-04-03T10:12:00;4.20;;;1.20;;
76228;SDS011;65021;53.174;18.160;2023-04-03T10:14:33;3.30;;;0.90;;
76228;SDS011;65021;53.174;18.160;2023-04-03T10:17:02;3.30;;;0.90;;
76228;SDS011;65021;53.174;18.160;2023-04-03T10:22:16;3.50;;;0.90;;
76228;SDS011;65021;53.174;18.160;2023-04-03T10:24:52;3.60;;;0.70;;
76228;SDS011;65021;53.174;18.160;2023-04-03T10:38:33;5.50;;;1.30;;
76228;SDS011;65021;53.174;18.160;2023-04-03T10:41:16;2.90;;;1.10;;
76228;SDS011;65021;53.174;18.160;2023-04-03T10:43:55;3.30;;;0.80;;
76228;SDS011;65021;53.174;18.160;2023-04-03T10:46:37;3.40;;;1.00;;
76228;SDS011;65021;53.174;18.160;2023-04-03T10:53:03;3.20;;;1.20;;
76228;SDS011;65021;53.174;18.160;2023-04-03T10:58:33;2.90;;;0.60;;
76228;SDS011;65021;53.174;18.160;2023-04-03T11:01:08;3.10;;;1.00;;
76228;SDS011;65021;53.174;18.160;2023-04-03T11:03:40;4.10;;;1.00;;
76228;SDS011;65021;53.174;18.160;2023-04-03T11:06:12;2.90;;;0.90;;
76228;SDS011;65021;53.174;18.160;2023-04-03T11:11:23;1.90;;;0.70;;
76228;SDS011;65021;53.174;18.160;2023-04-03T11:14:05;2.40;;;0.70;;
76228;SDS011;65021;53.174;18.160;2023-04-03T11:16:43;4.70;;;1.00;;
76228;SDS011;65021;53.174;18.160;2023-04-03T11:22:04;2.50;;;0.80;;
76228;SDS011;65021;53.174;18.160;2023-04-03T11:24:37;5.00;;;0.90;;
76228;SDS011;65021;53.174;18.160;2023-04-03T11:27:08;1.30;;;0.50;;
76228;SDS011;65021;53.174;18.160;2023-04-03T11:29:44;3.60;;;1.00;;
76228;SDS011;65021;53.174;18.160;2023-04-03T11:35:27;4.20;;;0.70;;
76228;SDS011;65021;53.174;18.160;2023-04-03T11:37:53;2.00;;;0.60;;
76228;SDS011;65021;53.174;18.160;2023-04-03T11:43:19;2.30;;;0.80;;
76228;SDS011;65021;53.174;18.160;2023-04-03T11:50:59;5.20;;;0.80;;
76228;SDS011;65021;53.174;18.160;2023-04-03T11:55:58;2.70;;;0.60;;
76228;SDS011;65021;53.174;18.160;2023-04-03T11:58:33;5.80;;;1.00;;
76228;SDS011;65021;53.174;18.160;2023-04-03T12:01:04;2.40;;;0.80;;
76228;SDS011;65021;53.174;18.160;2023-04-03T12:08:45;3.90;;;1.20;;
76228;SDS011;65021;53.174;18.160;2023-04-03T12:29:29;2.20;;;0.80;;
76228;SDS011;65021;53.174;18.160;2023-04-03T12:43:31;3.50;;;0.80;;
76228;SDS011;65021;53.174;18.160;2023-04-03T12:48:54;1.50;;;0.60;;
76228;SDS011;65021;53.174;18.160;2023-04-03T12:51:40;2.20;;;0.80;;
76228;SDS011;65021;53.174;18.160;2023-04-03T12:54:15;3.80;;;0.90;;
76228;SDS011;65021;53.174;18.160;2023-04-03T12:56:43;1.70;;;0.60;;
76228;SDS011;65021;53.174;18.160;2023-04-03T12:59:15;2.80;;;0.70;;
76228;SDS011;65021;53.174;18.160;2023-04-03T13:01:44;2.00;;;0.40;;
76228;SDS011;65021;53.174;18.160;2023-04-03T13:04:18;2.30;;;0.80;;
76228;SDS011;65021;53.174;18.160;2023-04-03T13:06:44;2.80;;;0.80;;
76228;SDS011;65021;53.174;18.160;2023-04-03T13:11:47;2.40;;;0.70;;
76228;SDS011;65021;53.174;18.160;2023-04-03T13:14:16;2.70;;;0.70;;
76228;SDS011;65021;53.174;18.160;2023-04-03T13:17:00;3.00;;;0.80;;
76228;SDS011;65021;53.174;18.160;2023-04-03T13:19:28;2.10;;;0.80;;
76228;SDS011;65021;53.174;18.160;2023-04-03T13:22:01;4.00;;;0.90;;
76228;SDS011;65021;53.174;18.160;2023-04-03T13:24:32;2.60;;;0.60;;
76228;SDS011;65021;53.174;18.160;2023-04-03T13:27:02;2.80;;;0.80;;
76228;SDS011;65021;53.174;18.160;2023-04-03T13:29:38;2.50;;;0.50;;
76228;SDS011;65021;53.174;18.160;2023-04-03T13:32:05;3.90;;;1.00;;
76228;SDS011;65021;53.174;18.160;2023-04-03T13:34:36;4.80;;;1.20;;
76228;SDS011;65021;53.174;18.160;2023-04-03T13:37:06;2.50;;;0.90;;
76228;SDS011;65021;53.174;18.160;2023-04-03T13:39:34;3.30;;;1.20;;
76228;SDS011;65021;53.174;18.160;2023-04-03T13:47:44;3.50;;;1.10;;
76228;SDS011;65021;53.174;18.160;2023-04-03T13:52:41;3.60;;;0.80;;
76228;SDS011;65021;53.174;18.160;2023-04-03T13:55:29;2.50;;;0.60;;
76228;SDS011;65021;53.174;18.160;2023-04-03T14:06:11;12.20;;;4.00;;
76228;SDS011;65021;53.174;18.160;2023-04-03T14:08:40;4.90;;;1.10;;
76228;SDS011;65021;53.174;18.160;2023-04-03T14:11:08;2.90;;;0.90;;
76228;SDS011;65021;53.174;18.160;2023-04-03T14:13:39;5.80;;;2.30;;
76228;SDS011;65021;53.174;18.160;2023-04-03T14:16:06;9.20;;;2.90;;
76228;SDS011;65021;53.174;18.160;2023-04-03T14:18:32;16.80;;;6.90;;
76228;SDS011;65021;53.174;18.160;2023-04-03T14:20:58;21.40;;;8.80;;
76228;SDS011;65021;53.174;18.160;2023-04-03T14:23:23;23.00;;;9.50;;
76228;SDS011;65021;53.174;18.160;2023-04-03T14:25:49;10.10;;;4.70;;
76228;SDS011;65021;53.174;18.160;2023-04-03T14:28:17;9.60;;;3.30;;
76228;SDS011;65021;53.174;18.160;2023-04-03T14:30:45;5.90;;;2.20;;
76228;SDS011;65021;53.174;18.160;2023-04-03T14:33:16;6.00;;;2.20;;
76228;SDS011;65021;53.174;18.160;2023-04-03T14:35:44;4.50;;;1.60;;
76228;SDS011;65021;53.174;18.160;2023-04-03T14:41:07;4.10;;;1.60;;
76228;SDS011;65021;53.174;18.160;2023-04-03T14:43:33;4.40;;;1.30;;
76228;SDS011;65021;53.174;18.160;2023-04-03T14:45:59;4.60;;;1.70;;
76228;SDS011;65021;53.174;18.160;2023-04-03T14:48:26;3.90;;;1.20;;
76228;SDS011;65021;53.174;18.160;2023-04-03T14:50:53;2.60;;;0.90;;
76228;SDS011;65021;53.174;18.160;2023-04-03T14:53:19;4.50;;;1.40;;
76228;SDS011;65021;53.174;18.160;2023-04-03T14:55:51;5.30;;;1.30;;
76228;SDS011;65021;53.174;18.160;2023-04-03T14:58:18;4.40;;;1.10;;
76228;SDS011;65021;53.174;18.160;2023-04-03T15:00:46;3.10;;;1.10;;
76228;SDS011;65021;53.174;18.160;2023-04-03T15:03:16;3.30;;;1.30;;
76228;SDS011;65021;53.174;18.160;2023-04-03T15:05:48;3.10;;;1.10;;
76228;SDS011;65021;53.174;18.160;2023-04-03T15:08:19;3.90;;;1.30;;
76228;SDS011;65021;53.174;18.160;2023-04-03T15:10:47;3.00;;;1.20;;
76228;SDS011;65021;53.174;18.160;2023-04-03T15:13:14;3.50;;;0.80;;
76228;SDS011;65021;53.174;18.160;2023-04-03T15:15:40;3.00;;;1.00;;
76228;SDS011;65021;53.174;18.160;2023-04-03T15:18:09;3.20;;;0.90;;
76228;SDS011;65021;53.174;18.160;2023-04-03T15:20:40;3.90;;;1.10;;
76228;SDS011;65021;53.174;18.160;2023-04-03T15:23:06;2.40;;;0.60;;
76228;SDS011;65021;53.174;18.160;2023-04-03T15:25:32;2.40;;;1.00;;
76228;SDS011;65021;53.174;18.160;2023-04-03T15:27:58;3.80;;;0.90;;
76228;SDS011;65021;53.174;18.160;2023-04-03T15:30:25;3.30;;;0.80;;
76228;SDS011;65021;53.174;18.160;2023-04-03T15:32:54;3.00;;;0.70;;
76228;SDS011;65021;53.174;18.160;2023-04-03T15:35:20;3.40;;;1.00;;
76228;SDS011;65021;53.174;18.160;2023-04-03T15:37:49;1.60;;;0.70;;
76228;SDS011;65021;53.174;18.160;2023-04-03T15:40:16;3.40;;;1.10;;
76228;SDS011;65021;53.174;18.160;2023-04-03T15:42:42;2.60;;;0.70;;
76228;SDS011;65021;53.174;18.160;2023-04-03T15:45:08;4.60;;;1.20;;
76228;SDS011;65021;53.174;18.160;2023-04-03T15:50:05;4.30;;;0.80;;
76228;SDS011;65021;53.174;18.160;2023-04-03T15:52:33;2.90;;;0.90;;
76228;SDS011;65021;53.174;18.160;2023-04-03T15:54:59;2.80;;;0.90;;
76228;SDS011;65021;53.174;18.160;2023-04-03T15:57:25;4.00;;;1.00;;
76228;SDS011;65021;53.174;18.160;2023-04-03T15:59:52;3.10;;;1.20;;
76228;SDS011;65021;53.174;18.160;2023-04-03T16:02:18;4.10;;;1.00;;
76228;SDS011;65021;53.174;18.160;2023-04-03T16:04:44;2.30;;;0.70;;
76228;SDS011;65021;53.174;18.160;2023-04-03T16:07:10;6.70;;;2.20;;
76228;SDS011;65021;53.174;18.160;2023-04-03T16:09:36;3.40;;;1.10;;
76228;SDS011;65021;53.174;18.160;2023-04-03T16:12:02;1.90;;;0.50;;
76228;SDS011;65021;53.174;18.160;2023-04-03T16:14:28;3.40;;;1.00;;
76228;SDS011;65021;53.174;18.160;2023-04-03T16:16:56;4.50;;;1.30;;
76228;SDS011;65021;53.174;18.160;2023-04-03T16:19:22;3.80;;;0.50;;
76228;SDS011;65021;53.174;18.160;2023-04-03T16:21:48;1.80;;;0.70;;
76228;SDS011;65021;53.174;18.160;2023-04-03T16:24:15;2.40;;;0.50;;
76228;SDS011;65021;53.174;18.160;2023-04-03T16:26:41;2.80;;;0.80;;
76228;SDS011;65021;53.174;18.160;2023-04-03T16:29:07;4.00;;;0.90;;
76228;SDS011;65021;53.174;18.160;2023-04-03T16:31:33;3.40;;;0.90;;
76228;SDS011;65021;53.174;18.160;2023-04-03T16:33:59;5.30;;;0.80;;
76228;SDS011;65021;53.174;18.160;2023-04-03T16:36:25;1.50;;;0.60;;
76228;SDS011;65021;53.174;18.160;2023-04-03T16:38:52;2.70;;;0.70;;
76228;SDS011;65021;53.174;18.160;2023-04-03T16:41:18;2.00;;;0.70;;
76228;SDS011;65021;53.174;18.160;2023-04-03T16:43:44;4.00;;;1.00;;
76228;SDS011;65021;53.174;18.160;2023-04-03T16:46:10;3.70;;;1.30;;
76228;SDS011;65021;53.174;18.160;2023-04-03T16:48:36;5.80;;;1.20;;
76228;SDS011;65021;53.174;18.160;2023-04-03T16:51:02;3.70;;;1.20;;
76228;SDS011;65021;53.174;18.160;2023-04-03T16:53:28;2.80;;;1.00;;